| time (UTC) | temp C | wind direction | speed KPH | gust KPH | rain 1hr cm | rain 24hr cm | rain mn cm | humidity % | barometer mb |
| 20260503020051 | 17 | 137 | 11.3 | 0.0 | 0.00 | 0.00 | 0.00 | 35 | 1011.1 |
| 20260503014600 | 17 | 158 | 12.9 | 0.0 | 0.00 | 0.00 | 0.00 | 34 | 1011.1 |
| 20260503013049 | 18 | 142 | 6.4 | 0.0 | 0.00 | 0.00 | 0.00 | 33 | 1011.1 |
| 20260503011551 | 18 | 134 | 3.2 | 0.0 | 0.00 | 0.00 | 0.00 | 33 | 1011.2 |
| 20260503010051 | 18 | 68 | 4.8 | 0.0 | 0.00 | 0.00 | 0.00 | 31 | 1011.2 |
| 20260503004550 | 18 | 5 | 6.4 | 0.0 | 0.00 | 0.00 | 0.00 | 32 | 1011.3 |
| 20260503003048 | 18 | 47 | 9.7 | 0.0 | 0.00 | 0.00 | 0.00 | 31 | 1011.3 |
| 20260503001647 | 18 | 44 | 4.8 | 0.0 | 0.00 | 0.00 | 0.00 | 32 | 1011.5 |
| 20260503000045 | 18 | 45 | 4.8 | 0.0 | 0.00 | 0.00 | 0.00 | 32 | 1011.6 |
| 20260502234552 | 18 | 322 | 6.4 | 0.0 | 0.00 | 0.00 | 0.00 | 32 | 1011.8 |
| 20260502233044 | 18 | 207 | 6.4 | 0.0 | 0.00 | 0.00 | 0.00 | 32 | 1011.9 |
| 20260502231544 | 18 | 291 | 4.8 | 0.0 | 0.00 | 0.00 | 0.00 | 32 | 1012.0 |
| 20260502230045 | 18 | 71 | 4.8 | 0.0 | 0.00 | 0.00 | 0.00 | 33 | 1012.0 |
| 20260502224547 | 19 | 150 | 6.4 | 0.0 | 0.00 | 0.00 | 0.00 | 32 | 1012.2 |
| 20260502223043 | 20 | 306 | 4.8 | 0.0 | 0.00 | 0.00 | 0.00 | 31 | 1012.5 |
| 20260502221539 | 19 | 247 | 9.7 | 0.0 | 0.00 | 0.00 | 0.00 | 31 | 1012.7 |
| 20260502220039 | 18 | 23 | 3.2 | 0.0 | 0.00 | 0.00 | 0.00 | 32 | 1012.9 |
| 20260502214553 | 19 | 309 | 8.0 | 0.0 | 0.00 | 0.00 | 0.00 | 31 | 1013.2 |
| 20260502213036 | 19 | 248 | 6.4 | 0.0 | 0.00 | 0.00 | 0.00 | 33 | 1013.3 |
| 20260502211536 | 19 | 327 | 11.3 | 0.0 | 0.00 | 0.00 | 0.00 | 33 | 1013.5 |
| 20260502210038 | 18 | 350 | 3.2 | 0.0 | 0.00 | 0.00 | 0.00 | 36 | 1013.7 |
| 20260502204534 | 17 | 187 | 8.0 | 0.0 | 0.00 | 0.00 | 0.00 | 36 | 1013.9 |
| 20260502203035 | 18 | 314 | 6.4 | 0.0 | 0.00 | 0.00 | 0.00 | 34 | 1014.0 |
| 20260502201531 | 17 | 238 | 4.8 | 0.0 | 0.00 | 0.00 | 0.00 | 36 | 1014.1 |
| 20260502200031 | 17 | 304 | 8.0 | 0.0 | 0.00 | 0.00 | 0.00 | 37 | 1014.2 |
| 20260502194533 | 17 | 32 | 3.2 | 0.0 | 0.00 | 0.00 | 0.00 | 38 | 1014.3 |
| 20260502193032 | 17 | 76 | 9.7 | 0.0 | 0.00 | 0.00 | 0.00 | 39 | 1014.6 |
| 20260502191530 | 16 | 330 | 6.4 | 0.0 | 0.00 | 0.00 | 0.00 | 40 | 1014.9 |
| 20260502190037 | 16 | 261 | 6.4 | 0.0 | 0.00 | 0.00 | 0.00 | 39 | 1015.1 |
| 20260502184528 | 16 | 305 | 9.7 | 0.0 | 0.00 | 0.00 | 0.00 | 39 | 1015.2 |
| 20260502183029 | 16 | 14 | 3.2 | 0.0 | 0.00 | 0.00 | 0.00 | 38 | 1015.1 |
| 20260502181535 | 17 | 42 | 8.0 | 0.0 | 0.00 | 0.00 | 0.00 | 39 | 1015.2 |
| 20260502163028 | 15 | 337 | 8.0 | 0.0 | 0.00 | 0.00 | 0.00 | 44 | 1015.9 |
| 20260502161521 | 15 | 19 | 8.0 | 0.0 | 0.00 | 0.00 | 0.00 | 43 | 1015.9 |
| 20260502151521 | 13 | 319 | 16.1 | 0.0 | 0.00 | 0.00 | 0.00 | 49 | 1015.9 |
| 20260502123049 | 7 | 319 | 14.5 | 0.0 | 0.00 | 0.00 | 0.00 | 60 | 1015.0 |
| 20260502121540 | 7 | 329 | 9.7 | 0.0 | 0.00 | 0.00 | 0.00 | 56 | 1014.9 |
| 20260502114536 | 7 | 348 | 9.7 | 0.0 | 0.00 | 0.00 | 0.00 | 56 | 1014.5 |
| 20260502113035 | 7 | 340 | 12.9 | 0.0 | 0.00 | 0.00 | 0.00 | 55 | 1014.4 |
| 20260502111535 | 7 | 336 | 12.9 | 0.0 | 0.00 | 0.00 | 0.00 | 56 | 1014.1 |
| 20260502110030 | 6 | 334 | 11.3 | 0.0 | 0.00 | 0.00 | 0.00 | 57 | 1013.8 |
| 20260502104531 | 7 | 334 | 14.5 | 0.0 | 0.00 | 0.00 | 0.00 | 54 | 1013.3 |
| 20260502103022 | 8 | 342 | 16.1 | 0.0 | 0.00 | 0.00 | 0.00 | 54 | 1013.0 |
| 20260502101519 | 8 | 355 | 17.7 | 0.0 | 0.00 | 0.00 | 0.00 | 53 | 1012.8 |
| 20260502091510 | 9 | 302 | 16.1 | 0.0 | 0.00 | 0.00 | 0.00 | 49 | 1011.9 |
| 20260502070059 | 10 | 291 | 12.9 | 0.0 | 0.00 | 0.00 | 0.00 | 41 | 1011.7 |
| 20260502064606 | 10 | 291 | 14.5 | 0.0 | 0.00 | 0.00 | 0.00 | 41 | 1011.6 |
| 20260502063051 | 10 | 303 | 11.3 | 0.0 | 0.00 | 0.00 | 0.00 | 40 | 1011.5 |
| 20260502061604 | 10 | 311 | 9.7 | 0.0 | 0.00 | 0.00 | 0.00 | 40 | 1011.5 |
| 20260502060046 | 10 | 343 | 11.3 | 0.0 | 0.00 | 0.00 | 0.00 | 40 | 1011.4 |
| 20260502054546 | 10 | 320 | 9.7 | 0.0 | 0.00 | 0.00 | 0.00 | 38 | 1011.3 |
| 20260502053047 | 10 | 338 | 9.7 | 0.0 | 0.00 | 0.00 | 0.00 | 38 | 1011.2 |
| 20260502051545 | 11 | 296 | 16.1 | 0.0 | 0.00 | 0.00 | 0.00 | 37 | 1011.2 |
| 20260502050045 | 10 | 299 | 12.9 | 0.0 | 0.00 | 0.00 | 0.00 | 36 | 1011.0 |
| 20260502044545 | 11 | 289 | 12.9 | 0.0 | 0.00 | 0.00 | 0.00 | 35 | 1011.0 |
| 20260502043047 | 11 | 308 | 12.9 | 0.0 | 0.00 | 0.00 | 0.00 | 33 | 1010.9 |
| 20260502041547 | 13 | 303 | 14.5 | 0.0 | 0.00 | 0.00 | 0.00 | 30 | 1010.9 |
| 20260502040044 | 14 | 297 | 17.7 | 0.0 | 0.00 | 0.00 | 0.00 | 29 | 1010.8 |
| 20260502034545 | 15 | 277 | 20.9 | 0.0 | 0.00 | 0.00 | 0.00 | 27 | 1010.7 |
| 20260502033041 | 15 | 283 | 20.9 | 0.0 | 0.00 | 0.00 | 0.00 | 26 | 1010.6 |
| 20260502031543 | 16 | 262 | 17.7 | 0.0 | 0.00 | 0.00 | 0.00 | 25 | 1010.5 |
| 20260502030041 | 16 | 257 | 12.9 | 0.0 | 0.00 | 0.00 | 0.00 | 23 | 1010.4 |
| 20260502024545 | 17 | 251 | 9.7 | 0.0 | 0.00 | 0.00 | 0.00 | 21 | 1010.2 |
| 20260502023040 | 18 | 219 | 11.3 | 0.0 | 0.00 | 0.00 | 0.00 | 20 | 1010.1 |
| 20260502021540 | 20 | 242 | 14.5 | 0.0 | 0.00 | 0.00 | 0.00 | 19 | 1010.0 |